Time;durP1;ratioP1;P1;durP2;ratioP2;P2;SDS_P1;SDS_P2;PMS_P1;PMS_P2;Temp;Humidity;BMP_temperature;BMP_pressure;BME280_temperature;BME280_humidity;BME280_pressure;Samples;Min_cycle;Max_cycle;Signal;HPM_P1;HPM_P2
2022/06/03 00:01:42;;;;;;;12.83;11.50;;;;;;;17.72;nan;94043.84;4996591;28;20569;-90
2022/06/03 00:05:11;;;;;;;17.07;12.73;;;;;;;17.78;nan;94035.63;5014392;28;20278;-91
2022/06/03 00:08:23;;;;;;;16.47;12.23;;;;;;;17.83;nan;94037.31;4987681;28;20262;-91
2022/06/03 00:11:28;;;;;;;14.77;13.30;;;;;;;17.93;nan;94034.94;4996092;28;20206;-92
2022/06/03 00:14:48;;;;;;;12.27;10.97;;;;;;;17.84;nan;94026.69;5010913;28;20295;-91
2022/06/03 00:17:58;;;;;;;13.07;11.70;;;;;;;17.70;nan;94024.69;4991719;28;20203;-91
2022/06/03 00:20:46;;;;;;;19.70;14.07;;;;;;;17.56;nan;94014.75;4993651;28;20262;-91
2022/06/03 00:23:53;;;;;;;18.90;15.17;;;;;;;17.74;nan;94009.94;4981661;28;20270;-91
2022/06/03 00:26:59;;;;;;;18.77;15.00;;;;;;;17.76;nan;94015.72;5005493;28;20282;-92
2022/06/03 00:29:50;;;;;;;17.43;14.73;;;;;;;17.61;nan;94027.75;4986145;28;20282;-92
2022/06/03 00:32:43;;;;;;;17.70;15.40;;;;;;;17.62;nan;94018.63;4996667;28;20207;-91
2022/06/03 00:35:39;;;;;;;18.37;15.80;;;;;;;17.69;nan;94022.47;5004422;28;20254;-91
2022/06/03 00:38:55;;;;;;;19.23;15.13;;;;;;;17.71;nan;94020.44;4997598;28;20285;-92
2022/06/03 00:42:17;;;;;;;18.23;14.67;;;;;;;17.80;nan;94010.22;4990712;28;20208;-91
2022/06/03 00:45:22;;;;;;;23.83;15.13;;;;;;;17.70;nan;94018.28;5020670;28;20698;-91
2022/06/03 00:48:34;;;;;;;16.83;14.77;;;;;;;17.61;nan;94016.41;5009001;28;20758;-92
2022/06/03 00:51:44;;;;;;;17.47;13.87;;;;;;;17.62;nan;94020.72;4989008;28;20215;-91
2022/06/03 00:54:40;;;;;;;17.03;14.17;;;;;;;17.67;nan;94028.03;5010222;28;20198;-92
2022/06/03 00:57:52;;;;;;;17.37;14.20;;;;;;;17.65;nan;94019.47;5000645;28;20258;-92
2022/06/03 01:00:59;;;;;;;19.43;14.10;;;;;;;17.52;nan;94014.56;5018470;28;20226;-91
2022/06/03 01:04:08;;;;;;;17.13;15.03;;;;;;;17.58;nan;94017.69;5012870;28;20219;-92
2022/06/03 01:07:13;;;;;;;17.83;15.93;;;;;;;17.51;nan;94018.75;5026119;28;20191;-91
2022/06/03 01:10:28;;;;;;;18.03;15.40;;;;;;;17.30;nan;94014.22;5024589;28;20199;-92
2022/06/03 01:13:33;;;;;;;20.37;16.10;;;;;;;17.31;nan;94007.94;5016678;28;20242;-91
2022/06/03 01:16:20;;;;;;;16.70;14.60;;;;;;;17.38;nan;93994.78;5017880;28;20190;-91
2022/06/03 01:19:25;;;;;;;20.93;15.53;;;;;;;17.39;nan;93997.00;5016572;28;20243;-91
2022/06/03 01:22:37;;;;;;;17.93;14.70;;;;;;;17.30;nan;93995.13;5011794;28;20235;-92
2022/06/03 01:26:06;;;;;;;22.07;16.07;;;;;;;17.39;nan;93991.34;4997228;28;20262;-92
2022/06/03 01:28:58;;;;;;;18.13;16.17;;;;;;;17.57;nan;93988.63;4957413;28;20226;-92
2022/06/03 01:32:11;;;;;;;21.60;17.00;;;;;;;17.67;nan;93988.38;5009061;28;20237;-91
2022/06/03 01:35:35;;;;;;;24.83;16.50;;;;;;;17.70;nan;93987.09;4996682;28;20198;-90
2022/06/03 01:38:57;;;;;;;20.57;15.97;;;;;;;17.61;nan;93982.41;5018504;28;20304;-92
2022/06/03 01:42:20;;;;;;;16.97;15.13;;;;;;;17.30;nan;93983.81;5021543;28;20199;-92
2022/06/03 01:45:29;;;;;;;22.30;16.57;;;;;;;17.65;nan;93988.28;4985113;28;20227;-92
2022/06/03 01:48:40;;;;;;;28.97;18.80;;;;;;;17.60;nan;93980.91;4988133;28;20218;-91
2022/06/03 01:51:34;;;;;;;22.80;17.30;;;;;;;17.68;nan;94004.00;4987811;28;20195;-92
2022/06/03 01:54:45;;;;;;;21.03;17.20;;;;;;;17.53;nan;94004.69;5001613;28;20207;-93
2022/06/03 01:57:53;;;;;;;20.33;16.37;;;;;;;17.62;nan;94006.56;5001302;28;20519;-92
2022/06/03 02:00:44;;;;;;;19.13;15.47;;;;;;;17.64;nan;94009.50;5000176;28;20230;-92
2022/06/03 02:03:59;;;;;;;18.43;14.77;;;;;;;17.61;nan;94005.81;4996602;28;20246;-92
2022/06/03 02:07:05;;;;;;;19.97;16.07;;;;;;;17.55;nan;94001.94;5010933;28;20203;-92
2022/06/03 02:10:17;;;;;;;19.43;17.33;;;;;;;17.43;nan;94001.38;5014682;28;20222;-92
2022/06/03 02:13:31;;;;;;;21.80;14.77;;;;;;;17.35;nan;93996.78;5012364;28;20311;-92
2022/06/03 02:16:59;;;;;;;17.17;13.93;;;;;;;17.34;nan;93989.66;5013839;28;20607;-91
2022/06/03 02:20:11;;;;;;;18.30;12.87;;;;;;;17.20;nan;93982.59;5015660;28;20323;-91
2022/06/03 02:23:10;;;;;;;21.97;15.63;;;;;;;17.22;nan;93971.38;5013570;28;20198;-92
2022/06/03 02:26:03;;;;;;;21.93;15.40;;;;;;;17.10;nan;93974.34;5011880;28;20246;-92
2022/06/03 02:32:39;;;;;;;28.87;19.57;;;;;;;16.99;nan;93961.06;5013374;28;20207;-91
2022/06/03 02:35:35;;;;;;;24.10;18.77;;;;;;;16.62;nan;93961.41;5014793;28;20194;-92
2022/06/03 02:38:46;;;;;;;28.43;18.77;;;;;;;17.37;nan;93953.66;5027996;28;20203;-92
2022/06/03 02:41:55;;;;;;;22.57;16.70;;;;;;;17.31;nan;93973.94;4990684;28;20242;-93
2022/06/03 02:44:52;;;;;;;20.50;16.53;;;;;;;17.42;nan;93960.97;4999395;28;20254;-92
2022/06/03 02:48:25;;;;;;;25.53;18.23;;;;;;;17.37;nan;93971.41;5021429;28;20231;-92
2022/06/03 02:51:26;;;;;;;22.43;17.10;;;;;;;17.38;nan;93983.47;5013443;28;20215;-93
2022/06/03 02:54:41;;;;;;;21.60;16.87;;;;;;;16.81;nan;93980.75;5010521;28;20227;-92
2022/06/03 02:58:01;;;;;;;29.30;16.97;;;;;;;17.22;nan;93977.75;5014712;28;20553;-92
2022/06/03 03:00:50;;;;;;;21.30;16.17;;;;;;;17.39;nan;93980.00;5013347;28;20257;-92
2022/06/03 03:03:48;;;;;;;22.00;15.07;;;;;;;16.98;nan;93987.91;4999472;28;20734;-93
2022/06/03 03:06:48;;;;;;;20.73;15.27;;;;;;;16.65;nan;93987.72;4992468;28;20250;-92
2022/06/03 03:10:03;;;;;;;20.30;16.53;;;;;;;16.86;nan;93981.66;4993478;28;20211;-93
2022/06/03 03:12:58;;;;;;;22.90;15.20;;;;;;;16.83;nan;93982.94;5011269;28;20950;-92
2022/06/03 03:16:09;;;;;;;22.20;16.23;;;;;;;17.39;nan;93980.00;4995399;28;20247;-92
2022/06/03 03:19:17;;;;;;;19.30;15.43;;;;;;;17.49;nan;93981.81;5013164;28;20222;-92
2022/06/03 03:22:44;;;;;;;18.43;14.80;;;;;;;17.39;nan;93973.59;5007106;28;20268;-92
2022/06/03 03:25:48;;;;;;;21.13;16.20;;;;;;;16.53;nan;93980.06;4997783;28;20294;-93
2022/06/03 03:28:47;;;;;;;26.13;16.37;;;;;;;16.64;nan;93974.91;4991583;28;20290;-93
2022/06/03 03:32:05;;;;;;;18.10;14.63;;;;;;;16.62;nan;93986.13;5011593;28;20322;-93
2022/06/03 03:35:09;;;;;;;19.30;13.60;;;;;;;16.78;nan;93984.13;4984904;28;20198;-93
2022/06/03 03:38:27;;;;;;;18.90;14.50;;;;;;;16.75;nan;93994.59;4999645;28;20245;-92
2022/06/03 03:42:00;;;;;;;22.03;14.83;;;;;;;16.80;nan;94004.00;4981830;28;20247;-92
2022/06/03 03:45:00;;;;;;;21.40;15.17;;;;;;;16.75;nan;94011.56;4982022;28;20203;-92
2022/06/03 03:48:12;;;;;;;23.83;16.87;;;;;;;16.74;nan;94012.19;4996785;28;20318;-92
2022/06/03 03:51:15;;;;;;;20.97;15.50;;;;;;;16.80;nan;94001.19;4992021;28;20261;-92
2022/06/03 03:54:34;;;;;;;24.03;16.27;;;;;;;16.90;nan;93993.19;4989435;28;20224;-93
2022/06/03 03:57:44;;;;;;;23.07;13.97;;;;;;;16.92;nan;93990.44;4984876;28;20731;-93
2022/06/03 04:00:37;;;;;;;20.80;17.03;;;;;;;17.10;nan;93999.81;4997186;28;20202;-93
2022/06/03 04:03:55;;;;;;;23.87;17.23;;;;;;;17.17;nan;94004.41;4977923;28;20202;-93
2022/06/03 04:06:48;;;;;;;25.63;16.33;;;;;;;17.09;nan;94015.38;4985434;28;20679;-92
2022/06/03 04:10:26;;;;;;;23.50;15.00;;;;;;;17.79;nan;94005.91;4985644;28;20259;-92
2022/06/03 04:13:40;;;;;;;19.33;15.87;;;;;;;18.02;nan;94005.56;5004271;28;20374;-92
2022/06/03 04:16:58;;;;;;;20.77;15.97;;;;;;;18.25;nan;93995.94;4998478;28;20293;-93
2022/06/03 04:19:45;;;;;;;17.83;15.07;;;;;;;18.34;nan;94009.09;4998867;28;20218;-94
2022/06/03 04:22:34;;;;;;;17.13;15.33;;;;;;;18.29;nan;94012.41;4997270;28;20640;-93
2022/06/03 04:25:55;;;;;;;17.63;15.03;;;;;;;18.75;nan;94010.88;4994315;28;20219;-93
2022/06/03 04:28:43;;;;;;;18.97;15.63;;;;;;;18.94;nan;94015.94;4998826;28;20307;-94
2022/06/03 04:32:04;;;;;;;17.27;14.37;;;;;;;18.94;nan;94011.00;4990375;28;20206;-94
2022/06/03 04:35:28;;;;;;;17.57;13.53;;;;;;;19.12;nan;94019.53;4995403;28;20207;-93
2022/06/03 04:38:43;;;;;;;16.37;13.43;;;;;;;19.22;nan;94016.38;5010142;28;20237;-94
2022/06/03 04:41:46;;;;;;;16.77;12.13;;;;;;;19.49;nan;94016.09;4992095;28;20226;-93
2022/06/03 04:44:58;;;;;;;14.90;13.33;;;;;;;19.57;nan;94022.06;4997632;28;20534;-94
2022/06/03 04:48:16;;;;;;;13.33;12.03;;;;;;;19.98;nan;94017.94;4980576;28;20219;-93
2022/06/03 04:51:51;;;;;;;14.20;11.13;;;;;;;20.25;nan;94011.84;4999978;28;20298;-93
2022/06/03 04:54:41;;;;;;;15.20;10.33;;;;;;;20.43;nan;94012.53;4993436;28;20528;-93
2022/06/03 04:57:44;;;;;;;11.23;10.03;;;;;;;20.84;nan;94011.84;4998808;28;20286;-93
2022/06/03 05:00:40;;;;;;;9.63;8.73;;;;;;;21.15;nan;94005.09;4994399;28;20686;-93
2022/06/03 05:03:43;;;;;;;8.73;8.00;;;;;;;21.47;nan;94004.69;5007590;28;20206;-92
2022/06/03 05:07:05;;;;;;;8.93;8.13;;;;;;;21.80;nan;94005.00;5003802;28;20569;-92
2022/06/03 05:10:20;;;;;;;8.10;7.40;;;;;;;21.89;nan;94014.56;4975579;28;20280;-93
2022/06/03 05:13:23;;;;;;;7.20;6.60;;;;;;;21.87;nan;93997.38;4998381;28;20306;-92
2022/06/03 05:16:25;;;;;;;7.97;7.27;;;;;;;21.90;nan;93998.16;5002052;28;20198;-93
2022/06/03 05:19:23;;;;;;;9.17;8.37;;;;;;;21.47;nan;93993.28;5016896;28;20702;-91
2022/06/03 05:22:17;;;;;;;9.50;6.40;;;;;;;22.58;nan;93983.06;5015670;28;20241;-91
2022/06/03 05:25:34;;;;;;;6.63;5.20;;;;;;;22.85;nan;93987.34;5015494;28;20745;-91
2022/06/03 05:28:18;;;;;;;4.33;3.00;;;;;;;23.14;nan;93976.66;5000912;28;20257;-92
2022/06/03 05:31:32;;;;;;;4.23;3.03;;;;;;;23.60;nan;93969.22;4983891;28;20224;-91
2022/06/03 05:34:37;;;;;;;2.30;2.13;;;;;;;24.27;nan;93976.44;5000960;28;20202;-91
2022/06/03 05:38:00;;;;;;;2.37;2.13;;;;;;;24.64;nan;93977.19;5000504;28;20250;-91
2022/06/03 05:42:23;;;;;;;5.80;2.43;;;;;;;24.78;nan;93980.31;4990326;28;20198;-88
2022/06/03 05:44:35;;;;;;;5.23;2.03;;;;;;;24.68;nan;93988.72;5009944;28;20250;-91
2022/06/03 05:47:44;;;;;;;2.30;2.10;;;;;;;24.84;nan;93986.91;5015704;28;20673;-91
2022/06/03 05:50:51;;;;;;;2.00;1.80;;;;;;;25.26;nan;94001.28;4994375;28;20210;-91
2022/06/03 05:53:44;;;;;;;2.37;1.80;;;;;;;25.72;nan;94000.66;4993309;28;20206;-91
2022/06/03 05:56:42;;;;;;;3.70;2.00;;;;;;;25.43;nan;93990.81;4987202;28;20265;-92
2022/06/03 05:59:51;;;;;;;3.13;2.30;;;;;;;25.84;nan;93980.75;5000894;28;20662;-90
2022/06/03 06:03:13;;;;;;;2.63;1.90;;;;;;;26.69;nan;93993.38;4999841;28;20242;-92
2022/06/03 06:06:18;;;;;;;1.97;1.80;;;;;;;26.96;nan;94003.81;5025510;28;20206;-91
2022/06/03 06:09:22;;;;;;;1.97;1.87;;;;;;;27.33;nan;93995.53;5031423;28;20225;-89
2022/06/03 06:12:34;;;;;;;2.87;2.03;;;;;;;27.71;nan;94010.28;5026002;28;20613;-89
2022/06/03 06:15:38;;;;;;;5.03;2.22;;;;;;;27.69;nan;94010.28;5007689;28;20237;-90
2022/06/03 06:18:46;;;;;;;2.37;1.80;;;;;;;26.73;nan;94016.44;5033045;28;20579;-90
2022/06/03 06:21:56;;;;;;;2.87;2.40;;;;;;;26.12;nan;94007.00;5026863;28;20186;-91
2022/06/03 06:25:21;;;;;;;3.23;2.20;;;;;;;26.44;nan;94008.88;5005591;28;20198;-91
2022/06/03 06:28:32;;;;;;;2.83;2.10;;;;;;;27.10;nan;94022.63;5003061;28;20230;-91
2022/06/03 06:31:55;;;;;;;4.60;2.30;;;;;;;26.39;nan;94018.88;5019087;28;20210;-89
2022/06/03 06:34:57;;;;;;;3.40;2.67;;;;;;;27.36;nan;94020.00;5014286;28;20202;-91
2022/06/03 06:37:51;;;;;;;4.60;2.50;;;;;;;27.17;nan;94021.97;5014056;28;20260;-90
2022/06/03 06:40:50;;;;;;;4.03;2.37;;;;;;;27.60;nan;94026.03;5003475;28;20252;-91
2022/06/03 06:44:10;;;;;;;2.00;1.87;;;;;;;28.12;nan;94005.56;5029943;28;20243;-91
2022/06/03 06:47:06;;;;;;;3.53;2.10;;;;;;;28.44;nan;93999.28;4996335;28;20213;-90
2022/06/03 06:49:56;;;;;;;3.60;2.00;;;;;;;28.29;nan;93991.25;5016655;28;20207;-90
2022/06/03 06:52:52;;;;;;;2.88;1.85;;;;;;;28.36;nan;93996.34;5020665;28;20211;-90
2022/06/03 06:55:43;;;;;;;1.90;1.60;;;;;;;28.34;nan;94002.09;5027619;28;20229;-90
2022/06/03 06:59:17;;;;;;;1.83;1.48;;;;;;;28.84;nan;93992.25;5005235;28;20285;-91
2022/06/03 07:02:22;;;;;;;3.60;1.50;;;;;;;28.99;nan;93988.00;4973115;28;20224;-91
2022/06/03 07:05:09;;;;;;;1.52;1.42;;;;;;;29.11;nan;93988.00;4950670;28;20232;-90
2022/06/03 07:08:00;;;;;;;1.73;1.60;;;;;;;28.31;nan;93989.13;5013604;28;20226;-88
2022/06/03 07:10:51;;;;;;;2.60;1.50;;;;;;;28.90;nan;93974.97;5026901;28;20274;-90
2022/06/03 07:13:42;;;;;;;3.45;1.75;;;;;;;29.15;nan;93982.25;5049465;28;20225;-90
2022/06/03 07:19:55;;;;;;;1.52;1.42;;;;;;;29.50;nan;93976.56;5038129;28;20202;-90
2022/06/03 07:22:56;;;;;;;4.35;1.40;;;;;;;29.95;nan;93969.34;5027191;28;20286;-90
2022/06/03 07:25:54;;;;;;;2.75;1.35;;;;;;;30.41;nan;93976.47;4997471;28;20311;-89
2022/06/03 07:28:54;;;;;;;4.07;1.20;;;;;;;30.43;nan;93973.56;5027664;28;20230;-95
2022/06/03 07:31:56;;;;;;;2.17;1.42;;;;;;;30.53;nan;93964.91;5003124;28;20231;-91
2022/06/03 07:34:51;;;;;;;2.20;1.40;;;;;;;30.90;nan;93966.19;5016756;28;20249;-89
2022/06/03 07:37:45;;;;;;;4.25;1.38;;;;;;;31.40;nan;93960.88;5018536;28;20202;-88
2022/06/03 07:40:41;;;;;;;2.35;1.10;;;;;;;31.71;nan;93971.53;5018254;28;20682;-90
2022/06/03 07:43:38;;;;;;;2.55;1.42;;;;;;;31.93;nan;93972.78;5032368;28;20206;-91
2022/06/03 07:46:31;;;;;;;1.70;1.20;;;;;;;31.85;nan;93967.75;5032417;28;20278;-92
2022/06/03 07:49:18;;;;;;;3.90;1.55;;;;;;;32.48;nan;93959.19;5030744;28;20234;-89
2022/06/03 07:52:24;;;;;;;1.40;1.05;;;;;;;33.10;nan;93959.19;5031348;28;20937;-89
2022/06/03 07:55:20;;;;;;;1.33;1.20;;;;;;;34.07;nan;93958.44;5020408;28;20640;-91
2022/06/03 07:58:15;;;;;;;3.55;1.20;;;;;;;33.93;nan;93960.88;5030338;28;20206;-90
2022/06/03 08:01:01;;;;;;;2.75;1.48;;;;;;;35.00;nan;93955.28;5010953;28;20243;-90
2022/06/03 08:03:47;;;;;;;2.97;1.20;;;;;;;34.40;nan;93957.88;5017193;28;20284;-89
2022/06/03 08:12:43;;;;;;;1.70;1.20;;;;;;;33.81;nan;93950.19;5004144;28;20303;-88
2022/06/03 08:15:34;;;;;;;3.55;1.38;;;;;;;33.95;nan;93952.84;5002444;28;20203;-88
2022/06/03 08:18:19;;;;;;;4.47;1.80;;;;;;;35.05;nan;93950.81;4983427;28;20198;-87
2022/06/03 08:21:09;;;;;;;3.75;1.98;;;;;;;34.51;nan;93951.13;4977404;28;20211;-88
2022/06/03 08:23:56;;;;;;;1.70;1.50;;;;;;;34.73;nan;93958.72;4994040;28;20261;-87
2022/06/03 08:26:43;;;;;;;2.03;1.50;;;;;;;35.12;nan;93961.53;4978720;28;20223;-89
2022/06/03 08:29:43;;;;;;;2.00;1.80;;;;;;;34.61;nan;93958.94;4988299;28;20226;-88
2022/06/03 08:32:32;;;;;;;2.88;1.50;;;;;;;35.46;nan;93957.19;4993663;28;20226;-89
2022/06/03 08:35:24;;;;;;;3.95;1.60;;;;;;;34.33;nan;93950.75;4980265;28;20199;-89
2022/06/03 08:38:18;;;;;;;2.10;1.60;;;;;;;35.44;nan;93948.47;4987289;28;20206;-87
2022/06/03 08:41:24;;;;;;;4.47;1.80;;;;;;;35.53;nan;93946.81;4992264;28;20275;-88
2022/06/03 08:44:16;;;;;;;4.00;1.80;;;;;;;35.74;nan;93949.97;4995002;28;20338;-89
2022/06/03 08:47:42;;;;;;;4.80;1.55;;;;;;;35.80;nan;93946.22;5009808;28;20206;-88
2022/06/03 08:50:50;;;;;;;5.18;1.95;;;;;;;36.00;nan;93945.69;4926336;29;20215;-89
2022/06/03 08:53:48;;;;;;;4.82;1.60;;;;;;;36.42;nan;93947.53;4945277;29;20200;-87
2022/06/03 08:56:37;;;;;;;9.18;1.52;;;;;;;34.07;nan;93941.00;4980898;28;20207;-89
2022/06/03 08:59:28;;;;;;;3.88;1.63;;;;;;;35.34;nan;93939.97;4989445;28;20693;-89
2022/06/03 09:02:22;;;;;;;2.00;1.58;;;;;;;36.38;nan;93941.81;5009057;28;20194;-87
2022/06/03 09:05:16;;;;;;;3.75;1.70;;;;;;;35.52;nan;93945.38;4967806;28;20255;-89
2022/06/03 09:08:55;;;;;;;3.30;1.50;;;;;;;36.73;nan;93932.13;5011514;28;20568;-90
2022/06/03 09:11:51;;;;;;;3.78;1.65;;;;;;;36.48;nan;93932.78;4913594;29;20849;-91
2022/06/03 09:14:35;;;;;;;3.08;1.10;;;;;;;37.77;nan;93932.69;5005590;28;20195;-92
2022/06/03 09:17:32;;;;;;;2.80;1.17;;;;;;;37.92;nan;93933.66;5011741;28;20342;-89
2022/06/03 09:20:23;;;;;;;1.40;1.05;;;;;;;36.75;nan;93926.22;5012137;28;20253;-89
2022/06/03 09:23:10;;;;;;;1.30;1.20;;;;;;;37.50;nan;93921.09;4995504;28;20266;-89
2022/06/03 09:25:57;;;;;;;2.05;1.15;;;;;;;37.66;nan;93929.38;4999489;28;20266;-90
2022/06/03 09:28:41;;;;;;;1.40;1.08;;;;;;;38.43;nan;93927.53;5017673;28;20212;-91
2022/06/03 09:31:27;;;;;;;1.60;1.50;;;;;;;37.70;nan;93920.47;4978687;28;20199;-89
2022/06/03 09:34:13;;;;;;;1.40;1.30;;;;;;;37.98;nan;93921.72;4983927;28;20210;-87
2022/06/03 09:36:59;;;;;;;3.38;1.00;;;;;;;38.56;nan;93915.41;4982796;28;20234;-89
2022/06/03 09:39:46;;;;;;;1.70;1.15;;;;;;;39.60;nan;93922.47;4997044;28;20783;-90
2022/06/03 09:42:32;;;;;;;1.70;1.48;;;;;;;39.70;nan;93917.69;4995196;28;20223;-88
2022/06/03 09:45:20;;;;;;;4.28;1.40;;;;;;;39.06;nan;93907.00;4993005;28;20905;-89
2022/06/03 09:48:04;;;;;;;2.40;1.50;;;;;;;39.84;nan;93896.59;4994994;28;20274;-87
2022/06/03 09:50:51;;;;;;;2.03;1.48;;;;;;;40.18;nan;93900.34;4983263;28;20203;-90
2022/06/03 09:53:40;;;;;;;2.50;1.50;;;;;;;39.53;nan;93889.03;4978581;28;20218;-87
2022/06/03 09:56:30;;;;;;;3.75;1.30;;;;;;;39.27;nan;93875.38;4995757;28;20814;-92
2022/06/03 09:59:15;;;;;;;1.70;1.20;;;;;;;40.10;nan;93874.97;5013337;28;20222;-92
2022/06/03 10:01:58;;;;;;;1.88;1.33;;;;;;;40.21;nan;93870.06;4994085;28;20306;-89
2022/06/03 10:04:42;;;;;;;1.25;1.10;;;;;;;39.87;nan;93862.75;5005071;28;20210;-90
2022/06/03 10:07:26;;;;;;;1.83;1.00;;;;;;;40.39;nan;93863.44;5001629;28;20199;-86
2022/06/03 10:13:24;;;;;;;5.72;1.67;;;;;;;40.44;nan;93852.22;5012160;28;20269;-88
2022/06/03 10:16:12;;;;;;;1.75;1.38;;;;;;;42.05;nan;93860.13;5025046;28;20252;-90
2022/06/03 10:18:58;;;;;;;1.40;1.30;;;;;;;41.93;nan;93861.44;5041108;28;20198;-89
2022/06/03 10:21:51;;;;;;;3.10;1.40;;;;;;;42.82;nan;93862.06;4995684;28;20199;-92
2022/06/03 10:24:37;;;;;;;2.47;1.10;;;;;;;42.46;nan;93850.66;5012737;28;20206;-87
2022/06/03 10:27:21;;;;;;;5.97;0.80;;;;;;;42.57;nan;93854.50;5001022;28;20295;-88
2022/06/03 10:30:08;;;;;;;1.08;0.93;;;;;;;42.26;nan;93852.41;5014868;28;20775;-92
2022/06/03 10:32:56;;;;;;;4.90;0.93;;;;;;;41.65;nan;93845.19;5009845;28;20207;-93
2022/06/03 10:35:41;;;;;;;1.38;1.13;;;;;;;42.88;nan;93847.00;4999599;28;20234;-94
2022/06/03 10:38:33;;;;;;;2.15;1.00;;;;;;;43.78;nan;93847.09;5015335;28;20198;-92
2022/06/03 10:41:17;;;;;;;2.38;1.15;;;;;;;43.28;nan;93844.78;5009973;28;20222;-89
2022/06/03 10:44:13;;;;;;;3.97;0.88;;;;;;;43.37;nan;93850.94;5012363;28;20249;-91
2022/06/03 10:47:20;;;;;;;1.02;0.80;;;;;;;44.30;nan;93858.13;5012362;28;20202;-93
2022/06/03 10:50:11;;;;;;;2.10;0.90;;;;;;;44.24;nan;93849.59;5013185;28;20609;-94
2022/06/03 11:02:29;;;;;;;2.72;1.00;;;;;;;44.42;nan;93844.16;5004717;28;20214;-85
2022/06/03 11:05:35;;;;;;;0.80;0.73;;;;;;;45.44;nan;93839.28;5009746;28;20258;-86
2022/06/03 11:08:21;;;;;;;1.40;0.80;;;;;;;45.61;nan;93839.69;5006183;28;20253;-86
2022/06/03 11:11:05;;;;;;;2.25;1.05;;;;;;;43.72;nan;93829.03;5009630;28;20233;-86
2022/06/03 11:13:49;;;;;;;0.95;0.90;;;;;;;44.12;nan;93832.59;4994213;28;20250;-87
2022/06/03 11:16:33;;;;;;;1.63;0.90;;;;;;;44.07;nan;93831.44;5007494;28;20687;-87
2022/06/03 11:19:21;;;;;;;3.08;0.88;;;;;;;44.60;nan;93825.31;5007631;28;20607;-87
2022/06/03 11:22:20;;;;;;;2.25;1.00;;;;;;;45.44;nan;93828.16;5006363;28;20199;-85
2022/06/03 11:25:27;;;;;;;2.33;0.75;;;;;;;46.91;nan;93830.91;5020334;28;20310;-87
2022/06/03 11:28:33;;;;;;;2.05;0.90;;;;;;;45.22;nan;93825.91;5014131;28;20198;-85
2022/06/03 11:31:23;;;;;;;1.40;0.90;;;;;;;46.15;nan;93828.72;5011326;28;20206;-90
2022/06/03 11:34:35;;;;;;;3.05;1.05;;;;;;;47.18;nan;93833.41;5008692;28;21077;-87
2022/06/03 11:37:28;;;;;;;2.33;1.20;;;;;;;45.23;nan;93827.34;5009561;28;20297;-85
2022/06/03 11:40:21;;;;;;;3.78;1.27;;;;;;;44.00;nan;93826.72;4995097;28;20202;-84
2022/06/03 11:43:12;;;;;;;2.90;1.25;;;;;;;46.31;nan;93830.59;5003529;28;20206;-86
2022/06/03 11:46:02;;;;;;;1.23;0.90;;;;;;;46.34;nan;93834.84;5008850;28;20646;-86
2022/06/03 11:48:49;;;;;;;0.93;0.80;;;;;;;46.27;nan;93836.81;4988233;28;20198;-87
2022/06/03 11:51:36;;;;;;;2.28;1.00;;;;;;;47.43;nan;93839.03;5009423;28;20213;-87
2022/06/03 11:54:23;;;;;;;4.50;1.10;;;;;;;47.60;nan;93831.91;5009190;28;20221;-86
2022/06/03 11:57:10;;;;;;;1.27;0.95;;;;;;;46.52;nan;93830.63;5011293;28;20206;-86
2022/06/03 12:00:03;;;;;;;3.30;1.00;;;;;;;45.60;nan;93825.69;4987842;28;20292;-85
2022/06/03 12:03:33;;;;;;;2.58;1.05;;;;;;;44.88;nan;93808.78;5013089;28;20337;-85
2022/06/03 12:06:30;;;;;;;2.95;1.10;;;;;;;44.99;nan;93812.53;5010070;28;20271;-83
2022/06/03 12:09:29;;;;;;;3.15;1.00;;;;;;;44.06;nan;93794.56;4996502;28;20599;-86
2022/06/03 12:15:53;;;;;;;2.63;1.10;;;;;;;46.38;nan;93810.84;5008355;28;20252;-86
2022/06/03 12:18:55;;;;;;;4.47;1.15;;;;;;;46.38;nan;93810.84;5007036;28;20231;-87
2022/06/03 12:21:43;;;;;;;4.20;1.10;;;;;;;45.94;nan;93807.91;4996911;28;20202;-87
2022/06/03 12:24:34;;;;;;;2.88;1.40;;;;;;;44.08;nan;93803.28;5008115;28;20246;-89
2022/06/03 12:27:27;;;;;;;2.40;1.17;;;;;;;44.17;nan;93797.63;5007133;28;20202;-86
2022/06/03 12:30:26;;;;;;;3.55;1.23;;;;;;;42.61;nan;93798.25;5002699;28;20267;-86
2022/06/03 12:33:20;;;;;;;1.98;1.23;;;;;;;42.31;nan;93791.06;4995166;28;20203;-86
2022/06/03 12:36:10;;;;;;;1.85;1.23;;;;;;;43.43;nan;93792.28;5005282;28;20211;-87
2022/06/03 12:39:18;;;;;;;2.47;1.40;;;;;;;43.08;nan;93772.16;5008431;28;20282;-87
2022/06/03 12:42:20;;;;;;;4.90;1.20;;;;;;;43.22;nan;93771.34;5005563;28;20334;-89
2022/06/03 12:45:04;;;;;;;2.85;1.13;;;;;;;41.07;nan;93767.78;5021614;28;20257;-87
2022/06/03 12:47:50;;;;;;;3.72;1.33;;;;;;;40.62;nan;93753.72;5006747;28;20206;-90
2022/06/03 12:50:38;;;;;;;2.03;1.38;;;;;;;40.88;nan;93754.75;5023208;28;20269;-89
2022/06/03 12:53:44;;;;;;;1.63;1.40;;;;;;;40.81;nan;93751.38;5001879;28;20254;-87
2022/06/03 12:56:51;;;;;;;2.28;1.25;;;;;;;40.66;nan;93744.75;5002253;28;20242;-86
2022/06/03 12:59:59;;;;;;;2.80;1.75;;;;;;;39.89;nan;93743.03;5002038;28;20306;-90
2022/06/03 13:02:54;;;;;;;3.53;1.38;;;;;;;39.45;nan;93736.84;5009755;28;20202;-83
2022/06/03 13:05:53;;;;;;;5.05;1.80;;;;;;;39.68;nan;93744.69;5008260;28;20206;-86
2022/06/03 13:11:47;;;;;;;3.80;1.40;;;;;;;39.84;nan;93744.00;5003920;28;20253;-88
2022/06/03 13:14:33;;;;;;;1.75;1.60;;;;;;;39.48;nan;93740.41;4991225;28;20337;-86
2022/06/03 13:17:55;;;;;;;3.47;1.67;;;;;;;39.08;nan;93739.81;4997741;28;20252;-87
2022/06/03 13:21:02;;;;;;;2.90;1.48;;;;;;;38.26;nan;93744.44;4995695;28;20211;-86
2022/06/03 13:24:20;;;;;;;4.13;1.50;;;;;;;38.34;nan;93750.69;4989227;28;20302;-85
2022/06/03 13:27:22;;;;;;;1.60;1.50;;;;;;;38.60;nan;93746.09;5007633;28;20203;-87
2022/06/03 13:30:13;;;;;;;2.03;1.58;;;;;;;37.55;nan;93732.31;4978947;28;20679;-84
2022/06/03 13:33:02;;;;;;;2.15;1.50;;;;;;;36.62;nan;93727.28;4993538;28;20199;-86
2022/06/03 13:36:09;;;;;;;1.45;1.35;;;;;;;37.48;nan;93734.00;5000978;28;20510;-89
2022/06/03 13:38:53;;;;;;;4.85;1.70;;;;;;;36.93;nan;93732.91;4983252;28;20337;-83
2022/06/03 13:45:07;;;;;;;2.67;1.70;;;;;;;36.77;nan;93721.75;5010840;28;20198;-86
2022/06/03 13:47:59;;;;;;;4.13;1.85;;;;;;;37.87;nan;93725.34;4999969;28;20836;-87
2022/06/03 13:50:45;;;;;;;4.85;3.55;;;;;;;38.35;nan;93722.13;5013118;28;20252;-87
2022/06/03 13:53:30;;;;;;;5.10;1.98;;;;;;;36.98;nan;93722.50;5008805;28;20632;-85
2022/06/03 13:56:22;;;;;;;3.05;1.50;;;;;;;37.50;nan;93716.41;4990484;28;20202;-86
2022/06/03 13:59:16;;;;;;;3.03;1.63;;;;;;;37.33;nan;93718.47;4983384;28;20219;-85
2022/06/03 14:02:08;;;;;;;2.22;1.50;;;;;;;37.42;nan;93713.75;4980945;28;20199;-86
2022/06/03 14:05:07;;;;;;;2.35;1.77;;;;;;;37.48;nan;93716.47;4997145;28;20242;-85
2022/06/03 14:07:59;;;;;;;2.47;1.38;;;;;;;36.78;nan;93723.16;4998655;28;20226;-86
2022/06/03 14:10:50;;;;;;;1.85;1.35;;;;;;;37.28;nan;93720.09;5007167;28;20222;-85
2022/06/03 14:14:07;;;;;;;2.92;1.90;;;;;;;36.66;nan;93724.28;5007203;28;20267;-85
2022/06/03 14:17:26;;;;;;;4.05;1.88;;;;;;;37.22;nan;93721.72;5006238;28;20268;-86
2022/06/03 14:20:14;;;;;;;1.92;1.80;;;;;;;36.76;nan;93732.72;5008633;28;20218;-87
2022/06/03 14:23:23;;;;;;;3.72;1.75;;;;;;;35.93;nan;93719.81;5009413;28;20211;-86
2022/06/03 14:26:14;;;;;;;2.22;1.55;;;;;;;36.54;nan;93718.06;5010052;28;20188;-85
2022/06/03 14:29:09;;;;;;;2.00;1.65;;;;;;;35.88;nan;93725.06;5012574;28;20194;-86
2022/06/03 14:31:57;;;;;;;1.90;1.60;;;;;;;36.07;nan;93716.50;5007984;28;20203;-87
2022/06/03 14:34:48;;;;;;;2.67;1.70;;;;;;;36.21;nan;93724.88;5023322;28;20243;-88
2022/06/03 14:37:46;;;;;;;1.95;1.50;;;;;;;35.14;nan;93724.81;5011834;28;20241;-86
2022/06/03 14:40:34;;;;;;;3.28;1.67;;;;;;;35.64;nan;93732.25;5008023;28;20203;-86
2022/06/03 14:43:23;;;;;;;3.00;1.70;;;;;;;35.60;nan;93726.56;4996895;28;20258;-86
2022/06/03 14:46:36;;;;;;;8.05;2.15;;;;;;;35.34;nan;93717.78;5030360;28;20198;-86
2022/06/03 14:49:27;;;;;;;3.55;1.85;;;;;;;35.14;nan;93721.91;5008810;28;20619;-85
2022/06/03 14:52:17;;;;;;;4.53;1.73;;;;;;;35.23;nan;93705.69;4993346;28;20211;-85
2022/06/03 14:55:18;;;;;;;4.05;2.03;;;;;;;34.35;nan;93700.50;5000778;28;20210;-86
2022/06/03 14:58:39;;;;;;;3.30;2.08;;;;;;;34.40;nan;93684.38;5005435;28;20282;-86